• Join FlightAware (Why Join?)
  • Login
  • US Flag 
Gobble Gobble! 
02:25AM EST


 

Airport Tracker/Info


-or-


 

Live Flight TrackerFlight Track Log ✈ UAL4528 ✈ 12-Apr-2013 ✈ KIAH - KLBB

Flight Track Log - Related Links

Times and Time Zones

All times are in EDT time to prevent confusion due to time zone crossing. See the UAL4528 flight status page for this flight to view local times or setup timezone preferences in your user account.

Time Position Orientation Groundspeed Altitude Reporting Facility
EDT Latitude Longitude Course Direction KTS MPH feet Rate Location/Type
06:52PM 29.9639 -95.3433 291° West 167 192 600  Level Houston Center
06:53PM 29.9350 -95.3511 193° South 236 272 1,800 2,280 Climbing Houston Center
06:54PM 29.8839 -95.4267 232° Southwest 251 289 4,800 2,760 Climbing Houston Center
06:55PM 29.8739 -95.5111 262° West 263 303 7,600 2,700 Climbing Houston Center
06:56PM 30.0330 -95.7967 277° West  Level FlightAware Approximate
06:56PM 29.8900 -95.5975 282° West 273 314 10,500  Level Houston Center
06:57PM 30.0428 -95.9133 276° West  Level FlightAware Approximate
06:57PM 29.9247 -95.6764 297° West 274 315 12,100  Level Houston Center
06:58PM 30.0593 -96.0280 291° West  Level FlightAware Approximate
06:58PM 29.9578 -95.7672 293° West 299 344 14,000  Level Houston Center
06:59PM 29.9919 -95.8594 293° West 310 357 15,500 1,740 Climbing Houston Center
07:01PM 30.0364 -95.9725 294° West 321 369 17,700 1,860 Climbing Houston Center
07:02PM 30.0708 -96.0683 293° West 324 373 19,400 1,620 Climbing Houston Center
07:03PM 30.0872 -96.1694 281° West 321 369 21,100 1,500 Climbing Houston Center
07:04PM 30.1031 -96.2744 280° West 331 381 22,500 1,320 Climbing Houston Center
07:05PM 30.1208 -96.3825 281° West 341 392 23,900 1,440 Climbing Houston Center
07:06PM 30.1383 -96.5056 279° West 346 398 25,500 1,380 Climbing Houston Center
07:07PM 30.1556 -96.6156 280° West 346 398 26,800 1,080 Climbing Houston Center
07:08PM 30.1717 -96.7292 279° West 352 405 27,800 960 Climbing Houston Center
07:09PM 30.1883 -96.8419 280° West 353 406 28,800 1,020 Climbing Houston Center
07:10PM 30.2083 -96.9750 280° West 354 407 30,000 1,020 Climbing Houston Center
07:11PM 30.2264 -97.0897 280° West 359 413 31,000 960 Climbing Houston Center
07:12PM 30.2433 -97.2094 279° West 367 422 32,000 480 Climbing Houston Center
07:13PM 30.2608 -97.3331 279° West 379 436 32,000  Level Houston Center
07:14PM 30.2797 -97.4628 280° West 397 457 32,000  Level Houston Center
07:15PM 30.3000 -97.5939 280° West 407 468 32,000  Level Houston Center
07:16PM 30.3175 -97.7231 279° West 404 465 32,000  Level Houston Center
07:17PM 30.3572 -97.8450 291° West 411 473 32,000  Level Houston Center
07:18PM 30.4594 -97.9528 318° Northwest 418 481 32,000  Level Houston Center
07:19PM 30.5447 -98.0500 316° Northwest 421 484 32,000  Level Houston Center
07:20PM 30.6303 -98.1481 315° West 425 489 32,000  Level Houston Center
07:21PM 30.7150 -98.2456 315° West 424 488 32,000  Level Houston Center
07:22PM 30.7989 -98.3422 315° West 422 486 32,000  Level Houston Center
07:23PM 30.8828 -98.4400 315° West 422 486 32,000  Level Houston Center
07:24PM 30.9669 -98.5375 315° West 420 483 32,000  Level Houston Center
07:25PM 31.0506 -98.6353 315° West 422 486 32,000  Level Houston Center
07:26PM 31.1472 -98.7483 315° West 419 482 32,000  Level Houston Center
07:27PM 31.2308 -98.8453 315° West 419 482 32,000  Level Houston Center
07:28PM 31.3142 -98.9431 315° West 420 483 32,000  Level Houston Center
07:29PM 31.3958 -99.0422 314° West 420 483 32,000  Level Houston Center
07:31PM 31.4800 -99.1400 315° West 420 483 32,000  Level Houston Center
07:32PM 31.5633 -99.2386 315° West 421 484 32,000  Level Houston Center
07:33PM 31.6536 -99.3464 315° West 410 472 32,000  Level Fort Worth Center
07:34PM 31.7356 -99.4431 315° West 410 472 32,000  Level Fort Worth Center
07:35PM 31.8172 -99.5428 314° West 415 478 32,000  Level Fort Worth Center
07:36PM 31.9014 -99.6403 315° West 415 478 32,000  Level Fort Worth Center
07:37PM 31.9850 -99.7428 314° West 415 478 32,000  Level Fort Worth Center
07:38PM 32.0644 -99.8403 314° West 420 483 32,000  Level Fort Worth Center
07:39PM 32.1481 -99.9408 314° West 420 483 32,000  Level Fort Worth Center
07:40PM 32.2297 -100.0386 315° West 420 483 32,000  Level Fort Worth Center
07:41PM 32.3131 -100.1444 313° West 420 483 32,000  Level Fort Worth Center
07:42PM 32.3944 -100.2428 314° West 420 483 32,000  Level Fort Worth Center
07:43PM 32.4775 -100.3439 314° West 425 489 32,000  Level Fort Worth Center
07:44PM 32.5586 -100.4425 314° West 425 489 32,000  Level Fort Worth Center
07:45PM 32.6397 -100.5417 314° West 420 483 32,000  Level Fort Worth Center
07:46PM 32.7269 -100.6483 314° West 414 476 32,000 -780 Level Fort Worth Center
07:47PM 32.8058 -100.7450 314° West 407 468 30,500 -2,160 Descending Fort Worth Center
07:48PM 32.8844 -100.8444 313° West 407 468 27,700 -2,820 Descending Fort Worth Center
07:49PM 32.9672 -100.9442 315° West 407 468 24,900 -2,640 Descending Fort Worth Center
07:49PM 32.9933 -100.9825 309° West 423 487 23,700 -3,000 Descending Fort Worth Center
07:50PM 33.0481 -101.0392 319° Northwest 407 468 21,900 -3,300 Descending Fort Worth Center
07:50PM 33.0903 -101.0978 311° West 389 448 20,100 -2,640 Descending Fort Worth Center
07:51PM 33.1083 -101.1161 320° Northwest 375 432 19,300 -2,880 Descending Fort Worth Center
07:51PM 33.1567 -101.1825 311° West 343 395 17,200 -3,120 Descending Fort Worth Center
07:52PM 33.1828 -101.2083 320° Northwest 349 402 16,200 -2,700 Descending Fort Worth Center
07:52PM 33.2208 -101.2647 309° West 336 387 14,500 -2,640 Descending Fort Worth Center
07:53PM 33.2411 -101.2806 327° Northwest 343 395 13,600 -2,820 Descending Fort Worth Center
07:53PM 33.2939 -101.3350 319° Northwest 341 392 11,700 -2,700 Descending Fort Worth Center
07:54PM 33.3264 -101.3589 328° Northwest 343 395 10,900 -1,800 Descending Fort Worth Center
07:54PM 33.3753 -101.4008 324° Northwest 323 372 9,900 -1,320 Descending Fort Worth Center
07:55PM 33.3894 -101.4114 328° Northwest 325 374 9,600 -1,020 Descending Fort Worth Center
07:55PM 33.4400 -101.4608 321° Northwest 287 330 8,900 -1,020 Descending Fort Worth Center
07:56PM 33.4625 -101.4769 329° Northwest 305 351 8,600 -1,140 Descending Fort Worth Center
07:56PM 33.5050 -101.5186 321° Northwest 285 328 7,800 -1,140 Descending Fort Worth Center
07:57PM 33.5192 -101.5269 334° Northwest 288 331 7,500 -1,020 Descending Fort Worth Center